createdAt,value
2019-06-26T00:04:51.757Z,22.60
2019-06-26T00:09:56.734Z,22.60
2019-06-26T00:15:01.747Z,22.40
2019-06-26T00:20:07.719Z,22.40
2019-06-26T00:25:12.715Z,22.30
2019-06-26T00:30:18.074Z,22.30
2019-06-26T00:35:23.112Z,22.30
2019-06-26T00:40:28.102Z,22.20
2019-06-26T00:45:33.135Z,22.10
2019-06-26T00:50:38.178Z,22.10
2019-06-26T00:55:43.207Z,22.00
2019-06-26T01:00:52.043Z,21.90
2019-06-26T01:05:57.231Z,21.90
2019-06-26T01:11:02.245Z,21.80
2019-06-26T01:16:08.282Z,21.80
2019-06-26T01:21:13.246Z,21.80
2019-06-26T01:26:18.215Z,21.80
2019-06-26T01:31:23.266Z,21.70
2019-06-26T01:36:28.633Z,21.70
2019-06-26T01:41:33.684Z,21.60
2019-06-26T01:46:38.733Z,21.60
2019-06-26T01:51:43.702Z,21.50
2019-06-26T01:56:48.662Z,21.40
2019-06-26T02:01:53.944Z,21.40
2019-06-26T02:06:59.036Z,21.40
2019-06-26T02:12:03.981Z,21.30
2019-06-26T02:17:08.954Z,21.20
2019-06-26T02:22:14.005Z,21.20
2019-06-26T02:27:18.983Z,21.10
2019-06-26T02:32:24.039Z,21.10
2019-06-26T02:37:29.005Z,21.10
2019-06-26T02:42:34.046Z,21.10
2019-06-26T02:47:40.023Z,21.10
2019-06-26T02:52:45.011Z,21.10
2019-06-26T02:57:49.996Z,21.10
2019-06-26T03:02:55.198Z,21.10
2019-06-26T03:08:00.178Z,21.10
2019-06-26T03:13:05.530Z,21.20
2019-06-26T03:18:10.496Z,21.30
2019-06-26T03:23:15.474Z,21.40
2019-06-26T03:28:20.464Z,21.40
2019-06-26T03:33:25.429Z,21.50
2019-06-26T03:38:30.461Z,21.70
2019-06-26T03:43:35.833Z,22.30
2019-06-26T03:48:40.883Z,22.80
2019-06-26T03:53:45.844Z,24.30
2019-06-26T03:58:50.832Z,24.50
2019-06-26T04:03:57.692Z,24.90
2019-06-26T04:09:02.746Z,25.40
2019-06-26T04:14:09.318Z,26.20
2019-06-26T04:19:14.437Z,26.60
2019-06-26T04:24:19.476Z,26.70
2019-06-26T04:29:24.451Z,27.10
2019-06-26T04:34:29.430Z,27.30
2019-06-26T04:39:34.893Z,27.10
2019-06-26T04:44:39.940Z,27.50
2019-06-26T04:49:44.922Z,27.80
2019-06-26T04:54:49.920Z,27.60
2019-06-26T04:59:54.906Z,27.70
2019-06-26T05:05:01.237Z,27.70
2019-06-26T05:10:08.102Z,27.90
2019-06-26T05:15:13.088Z,28.00
2019-06-26T05:20:18.146Z,28.00
2019-06-26T05:25:23.188Z,28.60
2019-06-26T05:30:28.232Z,28.50
2019-06-26T05:35:35.203Z,28.60
2019-06-26T05:40:39.881Z,28.80
2019-06-26T05:45:45.179Z,28.70
2019-06-26T05:50:50.152Z,29.20
2019-06-26T05:55:55.132Z,29.10
2019-06-26T06:01:00.176Z,29.50
2019-06-26T06:06:05.334Z,30.30
2019-06-26T06:11:10.321Z,30.70
2019-06-26T06:16:15.303Z,30.60
2019-06-26T06:21:20.265Z,30.80
2019-06-26T06:26:25.303Z,30.80
2019-06-26T06:31:30.288Z,30.70
2019-06-26T06:36:35.353Z,31.20
2019-06-26T06:41:43.217Z,31.80
2019-06-26T06:46:59.609Z,31.60
2019-06-26T06:51:53.539Z,31.40
2019-06-26T06:56:58.541Z,31.10
2019-06-26T07:02:04.504Z,32.20
2019-06-26T07:07:09.725Z,32.30
2019-06-26T07:12:14.757Z,32.40
2019-06-26T07:17:21.237Z,32.60
2019-06-26T07:22:27.685Z,32.50
2019-06-26T07:27:32.667Z,32.70
2019-06-26T07:32:37.686Z,33.00
2019-06-26T07:37:42.741Z,32.90
2019-06-26T07:42:48.118Z,33.10
2019-06-26T07:47:53.158Z,33.30
2019-06-26T07:52:58.132Z,33.60
2019-06-26T07:58:03.201Z,34.00
2019-06-26T08:03:08.187Z,33.50
2019-06-26T08:08:14.798Z,33.70
2019-06-26T08:13:19.978Z,34.20
2019-06-26T08:18:24.951Z,34.10
2019-06-26T08:23:29.945Z,34.40
2019-06-26T08:28:34.928Z,34.40
2019-06-26T08:33:39.884Z,34.80
2019-06-26T08:38:44.870Z,34.60
2019-06-26T08:43:49.826Z,34.80
2019-06-26T08:48:54.815Z,34.80
2019-06-26T08:53:59.859Z,35.20
2019-06-26T08:59:04.925Z,35.60
2019-06-26T09:04:09.961Z,35.70
2019-06-26T09:09:15.176Z,35.20
2019-06-26T09:14:20.136Z,35.70
2019-06-26T09:19:25.094Z,35.40
2019-06-26T09:24:30.152Z,35.60
2019-06-26T09:29:35.182Z,35.20
2019-06-26T09:34:40.199Z,35.50
2019-06-26T09:39:45.245Z,35.60
2019-06-26T09:44:50.294Z,35.70
2019-06-26T09:49:55.341Z,36.30
2019-06-26T09:55:00.309Z,36.00
2019-06-26T10:00:08.661Z,35.80
2019-06-26T10:05:13.854Z,35.80
2019-06-26T10:10:19.290Z,36.10
2019-06-26T10:15:24.249Z,36.40
2019-06-26T10:20:29.442Z,36.30
2019-06-26T10:25:34.473Z,36.40
2019-06-26T10:30:39.608Z,36.60
2019-06-26T10:35:44.608Z,37.00
2019-06-26T10:40:49.588Z,36.90
2019-06-26T10:45:54.886Z,37.30
2019-06-26T10:50:59.876Z,37.60
2019-06-26T10:56:04.852Z,37.10
2019-06-26T11:01:09.881Z,37.10
2019-06-26T11:06:14.982Z,36.90
2019-06-26T11:11:20.178Z,37.20
2019-06-26T11:16:25.166Z,37.20
2019-06-26T11:21:30.269Z,36.80
2019-06-26T11:26:35.248Z,37.00
2019-06-26T11:31:40.295Z,37.40
2019-06-26T11:36:59.465Z,37.50
2019-06-26T11:41:51.870Z,37.70
2019-06-26T11:46:56.889Z,38.10
2019-06-26T11:52:01.884Z,38.20
2019-06-26T11:57:10.746Z,37.90
2019-06-26T12:02:16.209Z,37.60
2019-06-26T12:07:21.185Z,37.40
2019-06-26T12:12:26.462Z,37.80
2019-06-26T12:17:31.503Z,37.80
2019-06-26T12:22:36.475Z,38.00
2019-06-26T12:27:41.598Z,38.20
2019-06-26T12:33:01.606Z,37.90
2019-06-26T12:37:53.161Z,37.80
2019-06-26T12:42:58.200Z,38.00
2019-06-26T12:48:03.152Z,37.80
2019-06-26T12:53:09.885Z,38.00
2019-06-26T12:58:19.464Z,38.00
2019-06-26T13:03:21.467Z,37.80
2019-06-26T13:08:26.456Z,38.10
2019-06-26T13:13:32.733Z,38.10
2019-06-26T13:18:37.694Z,38.30
2019-06-26T13:23:42.745Z,38.00
2019-06-26T13:28:47.705Z,37.70
2019-06-26T13:33:52.758Z,37.70
2019-06-26T13:38:59.374Z,37.80
2019-06-26T13:44:04.353Z,37.80
2019-06-26T13:49:09.646Z,37.80
2019-06-26T13:54:14.891Z,38.00
2019-06-26T13:59:19.869Z,38.30
2019-06-26T14:04:24.897Z,38.20
2019-06-26T14:09:29.869Z,37.90
2019-06-26T14:14:52.793Z,38.10
2019-06-26T14:19:41.995Z,38.00
2019-06-26T14:24:47.642Z,37.90
2019-06-26T14:29:52.689Z,37.80
2019-06-26T14:34:57.674Z,37.70
2019-06-26T14:40:02.681Z,37.30
2019-06-26T14:45:10.684Z,37.10
2019-06-26T14:50:16.034Z,36.90
2019-06-26T14:55:21.001Z,37.00
2019-06-26T15:00:26.059Z,36.70
2019-06-26T15:05:31.129Z,36.50
2019-06-26T15:10:36.117Z,36.50
2019-06-26T15:15:41.323Z,36.00
2019-06-26T15:20:46.310Z,35.90
2019-06-26T15:25:51.284Z,35.70
2019-06-26T15:30:56.269Z,35.30
2019-06-26T15:36:01.342Z,35.40
2019-06-26T15:41:06.292Z,35.10
2019-06-26T15:46:11.314Z,34.90
2019-06-26T15:51:16.356Z,34.90
2019-06-26T15:56:22.237Z,35.20
2019-06-26T16:01:27.427Z,35.50
2019-06-26T16:06:32.472Z,35.50
2019-06-26T16:11:37.522Z,35.40
2019-06-26T16:16:44.236Z,35.50
2019-06-26T16:21:49.401Z,35.40
2019-06-26T16:26:54.519Z,35.20
2019-06-26T16:31:59.671Z,35.10
2019-06-26T16:37:04.640Z,35.10
2019-06-26T16:42:09.595Z,34.90
2019-06-26T16:47:14.597Z,34.70
2019-06-26T16:52:20.009Z,34.70
2019-06-26T16:57:25.972Z,34.50
2019-06-26T17:02:30.998Z,34.40
2019-06-26T17:07:35.983Z,34.40
2019-06-26T17:12:41.097Z,34.50
2019-06-26T17:17:46.312Z,34.30
2019-06-26T17:23:04.588Z,34.20
2019-06-26T17:27:57.972Z,34.00
2019-06-26T17:33:02.928Z,33.80
2019-06-26T17:38:07.981Z,33.70
2019-06-26T17:43:13.120Z,33.60
2019-06-26T17:48:18.367Z,33.50
2019-06-26T17:53:23.425Z,33.20
2019-06-26T17:58:28.403Z,33.10
2019-06-26T18:03:33.449Z,32.80
2019-06-26T18:08:38.559Z,32.70
2019-06-26T18:13:43.521Z,32.70
2019-06-26T18:18:48.827Z,32.60
2019-06-26T18:23:53.814Z,32.60
2019-06-26T18:29:01.965Z,32.50
2019-06-26T18:34:08.015Z,32.40
2019-06-26T18:39:12.971Z,32.30
2019-06-26T18:44:18.086Z,32.10
2019-06-26T18:49:23.193Z,31.90
2019-06-26T18:54:28.233Z,31.70
2019-06-26T18:59:33.223Z,31.40
2019-06-26T19:04:38.209Z,31.40
2019-06-26T19:09:43.194Z,31.20
2019-06-26T19:14:48.181Z,31.00
2019-06-26T19:19:53.265Z,30.80
2019-06-26T19:24:58.277Z,30.70
2019-06-26T19:30:04.782Z,30.70
2019-06-26T19:35:19.126Z,30.50
2019-06-26T19:40:17.515Z,30.60
2019-06-26T19:45:23.246Z,30.90
2019-06-26T19:50:28.233Z,31.00
2019-06-26T19:55:33.275Z,31.00
2019-06-26T20:00:38.241Z,30.80
2019-06-26T20:05:43.220Z,30.60
2019-06-26T20:10:48.171Z,30.50
2019-06-26T20:15:53.306Z,30.40
2019-06-26T20:20:58.691Z,30.40
2019-06-26T20:26:03.724Z,30.20
2019-06-26T20:31:12.424Z,30.00
2019-06-26T20:36:17.550Z,29.80
2019-06-26T20:41:22.580Z,29.70
2019-06-26T20:46:27.617Z,29.60
2019-06-26T20:51:33.600Z,29.50
2019-06-26T20:56:38.586Z,29.50
2019-06-26T21:01:43.733Z,29.20
2019-06-26T21:06:48.997Z,29.10
2019-06-26T21:11:54.063Z,29.00
2019-06-26T21:16:59.197Z,28.80
2019-06-26T21:22:04.466Z,28.70
2019-06-26T21:27:09.664Z,28.50
2019-06-26T21:32:14.981Z,28.40
2019-06-26T21:37:20.024Z,28.20
2019-06-26T21:42:25.169Z,28.10
2019-06-26T21:47:30.289Z,28.00
2019-06-26T21:52:35.353Z,27.80
2019-06-26T21:57:40.462Z,27.70
2019-06-26T22:03:04.241Z,27.50
2019-06-26T22:08:10.739Z,27.40
2019-06-26T22:13:17.428Z,27.30
2019-06-26T22:18:22.506Z,27.10
2019-06-26T22:23:27.834Z,27.00
2019-06-26T22:28:34.182Z,26.90
2019-06-26T22:33:39.309Z,26.70
2019-06-26T22:38:44.437Z,26.60
2019-06-26T22:43:49.402Z,26.60
2019-06-26T22:48:55.458Z,26.50
2019-06-26T22:54:00.631Z,26.40
2019-06-26T22:59:05.904Z,26.20
2019-06-26T23:04:11.044Z,26.10
2019-06-26T23:09:16.079Z,26.10
2019-06-26T23:14:21.215Z,25.90
2019-06-26T23:19:26.329Z,25.80
2019-06-26T23:24:31.830Z,25.80
2019-06-26T23:29:37.030Z,25.70
2019-06-26T23:34:42.366Z,25.70
2019-06-26T23:39:47.475Z,25.60
2019-06-26T23:44:52.523Z,25.40
2019-06-26T23:49:57.640Z,25.40
2019-06-26T23:55:02.709Z,25.20
